createdAt,value
2017-07-29T00:00:06.880Z,92.5
2017-07-29T00:01:14.356Z,92.5
2017-07-29T00:02:21.834Z,92.7
2017-07-29T00:03:29.315Z,92.6
2017-07-29T00:04:36.809Z,92.5
2017-07-29T00:05:44.589Z,92.3
2017-07-29T00:06:51.741Z,92.1
2017-07-29T00:07:59.221Z,92.2
2017-07-29T00:09:06.700Z,92.3
2017-07-29T00:10:14.180Z,92.4
2017-07-29T00:11:21.957Z,92.6
2017-07-29T00:12:29.431Z,92.1
2017-07-29T00:13:36.918Z,92
2017-07-29T00:14:44.392Z,92
2017-07-29T00:15:52.097Z,92.2
2017-07-29T00:16:59.936Z,92.2
2017-07-29T00:18:07.421Z,92.4
2017-07-29T00:19:14.897Z,92.4
2017-07-29T00:20:22.051Z,92.2
2017-07-29T00:21:29.533Z,92.1
2017-07-29T00:22:37.360Z,91.8
2017-07-29T00:23:44.837Z,92.3
2017-07-29T00:24:52.321Z,92.4
2017-07-29T00:25:59.800Z,92.3
2017-07-29T00:27:07.282Z,92.1
2017-07-29T00:28:15.116Z,92
2017-07-29T00:29:22.597Z,92.1
2017-07-29T00:30:30.078Z,91.9
2017-07-29T00:31:37.559Z,92
2017-07-29T00:32:45.038Z,92.1
2017-07-29T00:33:52.541Z,92.1
2017-07-29T00:35:00.024Z,92
2017-07-29T00:36:07.504Z,91.6
2017-07-29T00:37:14.982Z,92.1
2017-07-29T00:38:22.463Z,92.1
2017-07-29T00:39:30.490Z,91.9
2017-07-29T00:40:37.966Z,92
2017-07-29T00:41:45.441Z,92.2
2017-07-29T00:42:52.921Z,92.6
2017-07-29T00:44:00.070Z,92.7
2017-07-29T00:45:07.846Z,92.9
2017-07-29T00:46:15.330Z,92.7
2017-07-29T00:47:22.822Z,92.7
2017-07-29T00:48:30.304Z,92.6
2017-07-29T00:49:37.784Z,92.2
2017-07-29T00:50:45.566Z,92
2017-07-29T00:51:53.044Z,91.8
2017-07-29T00:53:00.524Z,91.7
2017-07-29T00:54:08.009Z,92.3
2017-07-29T00:55:15.159Z,92.2
2017-07-29T00:56:22.613Z,92.1
2017-07-29T00:57:30.093Z,92
2017-07-29T00:58:37.583Z,92.4
2017-07-29T00:59:45.062Z,92.6
2017-07-29T01:00:52.541Z,93.1
2017-07-29T01:02:00.318Z,93.3
2017-07-29T01:03:07.799Z,93.4
2017-07-29T01:04:15.278Z,93.2
2017-07-29T01:05:22.762Z,93.7
2017-07-29T01:06:29.908Z,93.6
2017-07-29T01:07:37.686Z,93.6
2017-07-29T01:08:45.167Z,93.8
2017-07-29T01:09:52.654Z,93.1
2017-07-29T01:11:00.135Z,93
2017-07-29T01:12:07.618Z,92.9
2017-07-29T01:13:15.396Z,93.5
2017-07-29T01:14:22.875Z,93.5
2017-07-29T01:15:30.018Z,93.1
2017-07-29T01:16:37.500Z,93.2
2017-07-29T01:17:44.981Z,93
2017-07-29T01:18:52.762Z,93.3
2017-07-29T01:20:00.238Z,93.7
2017-07-29T01:21:07.719Z,93.3
2017-07-29T01:22:15.196Z,93.7
2017-07-29T01:23:22.676Z,93.3
2017-07-29T01:24:30.454Z,93.6
2017-07-29T01:25:37.934Z,93.5
2017-07-29T01:26:45.417Z,93.3
2017-07-29T01:27:52.897Z,93.6
2017-07-29T01:29:00.372Z,93.7
2017-07-29T01:30:08.153Z,93.7
2017-07-29T01:31:15.627Z,93.4
2017-07-29T01:32:22.780Z,93.5
2017-07-29T01:33:29.928Z,93.8
2017-07-29T01:34:37.407Z,94.1
2017-07-29T01:35:45.185Z,93.8
2017-07-29T01:36:52.663Z,93.4
2017-07-29T01:37:59.824Z,93.3
2017-07-29T01:39:07.307Z,93.4
2017-07-29T01:40:14.784Z,92.8
2017-07-29T01:41:22.567Z,93.7
2017-07-29T01:42:30.040Z,93.6
2017-07-29T01:43:37.521Z,93.8
2017-07-29T01:44:44.998Z,94
2017-07-29T01:45:52.491Z,93.9
2017-07-29T01:47:00.277Z,93.6
2017-07-29T01:48:07.752Z,93.1
2017-07-29T01:49:15.239Z,92.9
2017-07-29T01:50:22.714Z,93.4
2017-07-29T01:51:29.861Z,93.5
2017-07-29T01:52:37.639Z,94.4
2017-07-29T01:53:45.123Z,94.1
2017-07-29T01:54:52.616Z,94.1
2017-07-29T01:56:00.099Z,93.8
2017-07-29T01:57:07.256Z,93.8
2017-07-29T01:58:15.030Z,93.5
2017-07-29T01:59:22.507Z,93.4
2017-07-29T02:00:29.655Z,93.8
2017-07-29T02:01:37.128Z,93.9
2017-07-29T02:02:44.608Z,94
2017-07-29T02:03:52.391Z,93.9
2017-07-29T02:04:59.870Z,93.9
2017-07-29T02:06:07.350Z,93.3
2017-07-29T02:07:14.828Z,93.6
2017-07-29T02:08:22.325Z,93.3
2017-07-29T02:09:29.770Z,94.1
2017-07-29T02:10:37.250Z,93.8
2017-07-29T02:11:44.726Z,93.8
2017-07-29T02:12:52.205Z,93.7
2017-07-29T02:13:59.675Z,94.3
2017-07-29T02:15:07.457Z,93.8
2017-07-29T02:16:14.942Z,93.9
2017-07-29T02:17:22.431Z,94
2017-07-29T02:18:29.908Z,94.2
2017-07-29T02:19:37.388Z,94
2017-07-29T02:20:45.163Z,94
2017-07-29T02:21:52.642Z,94.3
2017-07-29T02:23:00.123Z,94.2
2017-07-29T02:24:07.604Z,93.9
2017-07-29T02:25:15.091Z,93.7
2017-07-29T02:26:22.214Z,94
2017-07-29T02:27:29.695Z,93.6
2017-07-29T02:28:37.174Z,93.8
2017-07-29T02:29:44.657Z,93.3
2017-07-29T02:30:52.139Z,93.6
2017-07-29T02:31:59.925Z,93.9
2017-07-29T02:33:07.406Z,93.8
2017-07-29T02:34:14.888Z,94.1
2017-07-29T02:35:22.365Z,94
2017-07-29T02:36:29.844Z,93.8
2017-07-29T02:37:37.625Z,93.8
2017-07-29T02:38:45.111Z,93.9
2017-07-29T02:39:52.595Z,93.7
2017-07-29T02:41:00.074Z,93.9
2017-07-29T02:42:07.231Z,93.9
2017-07-29T02:43:15.010Z,93.4
2017-07-29T02:44:22.160Z,93.8
2017-07-29T02:45:29.305Z,93.7
2017-07-29T02:46:36.793Z,93.6
2017-07-29T02:47:44.263Z,93.5
2017-07-29T02:48:52.049Z,94
2017-07-29T02:49:59.532Z,93.9
2017-07-29T02:51:07.021Z,93.8
2017-07-29T02:52:14.503Z,93.9
2017-07-29T02:53:21.998Z,93.1
2017-07-29T02:54:29.800Z,93.1
2017-07-29T02:55:36.956Z,93.2
2017-07-29T02:56:44.118Z,93
2017-07-29T02:57:51.268Z,93.3
2017-07-29T02:58:58.751Z,94
2017-07-29T03:00:06.527Z,93
2017-07-29T03:01:14.006Z,93.3
2017-07-29T03:02:21.482Z,93.7
2017-07-29T03:03:28.960Z,93.8
2017-07-29T03:04:36.435Z,93.4
2017-07-29T03:05:44.214Z,93.9
2017-07-29T03:06:51.690Z,93.3
2017-07-29T03:07:59.163Z,93.5
2017-07-29T03:09:06.649Z,93.5
2017-07-29T03:10:14.133Z,93.8
2017-07-29T03:11:21.912Z,93.9
2017-07-29T03:12:29.067Z,93.8
2017-07-29T03:13:36.549Z,93.7
2017-07-29T03:14:44.032Z,93.6
2017-07-29T03:15:51.519Z,93.6
2017-07-29T03:16:59.297Z,93.7
2017-07-29T03:18:06.453Z,93
2017-07-29T03:19:13.597Z,93.7
2017-07-29T03:20:21.079Z,93.5
2017-07-29T03:21:28.568Z,94
2017-07-29T03:22:36.343Z,93.8
2017-07-29T03:23:43.162Z,93.8
2017-07-29T03:24:50.638Z,93.7
2017-07-29T03:25:58.119Z,93.3
2017-07-29T03:27:05.600Z,93.5
2017-07-29T03:28:13.376Z,93.9
2017-07-29T03:29:20.863Z,93.9
2017-07-29T03:30:28.342Z,93.6
2017-07-29T03:31:35.817Z,93.8
2017-07-29T03:32:43.302Z,93.8
2017-07-29T03:33:50.500Z,93.6
2017-07-29T03:34:57.657Z,93.2
2017-07-29T03:36:05.145Z,93.3
2017-07-29T03:37:12.626Z,93.3
2017-07-29T03:38:20.109Z,92.9
2017-07-29T03:39:27.882Z,93.7
2017-07-29T03:40:35.371Z,93.4
2017-07-29T03:41:42.857Z,93.5
2017-07-29T03:42:50.360Z,93.4
2017-07-29T03:43:57.836Z,93.2
2017-07-29T03:45:05.243Z,93.3
2017-07-29T03:46:12.727Z,93.2
2017-07-29T03:47:20.218Z,93.4
2017-07-29T03:48:27.693Z,93.5
2017-07-29T03:49:35.172Z,93.5
2017-07-29T03:50:42.950Z,93.4
2017-07-29T03:51:50.427Z,93.7
2017-07-29T03:52:57.917Z,93.4
2017-07-29T03:54:05.392Z,93.5
2017-07-29T03:55:12.541Z,93.5
2017-07-29T03:56:20.016Z,93.5
2017-07-29T03:57:27.498Z,93.3
2017-07-29T03:58:34.976Z,93.5
2017-07-29T03:59:42.453Z,93.4
2017-07-29T04:00:49.599Z,93.5
2017-07-29T04:01:57.391Z,93.4
2017-07-29T04:03:04.203Z,93.6
2017-07-29T04:04:11.681Z,93.8
2017-07-29T04:05:19.158Z,94
2017-07-29T04:06:26.638Z,93.7
2017-07-29T04:07:34.102Z,93.8
2017-07-29T04:08:40.917Z,93.5
2017-07-29T04:09:48.400Z,93.7
2017-07-29T04:10:55.551Z,94
2017-07-29T04:12:03.028Z,93.8
2017-07-29T04:13:10.815Z,93.4
2017-07-29T04:14:17.971Z,93.2
2017-07-29T04:15:25.453Z,93.4
2017-07-29T04:16:32.932Z,93.3
2017-07-29T04:17:40.090Z,93.7
2017-07-29T04:18:47.244Z,93.4
2017-07-29T04:19:54.724Z,93.4
2017-07-29T04:21:02.208Z,93.5
2017-07-29T04:22:09.689Z,93.4
2017-07-29T04:23:17.139Z,93.4
2017-07-29T04:24:24.626Z,93.6
2017-07-29T04:25:32.098Z,93.2
2017-07-29T04:26:39.248Z,93.6
2017-07-29T04:27:46.726Z,93.5
2017-07-29T04:28:54.512Z,93.6
2017-07-29T04:30:01.985Z,93.5
2017-07-29T04:31:09.469Z,93.8
2017-07-29T04:32:16.955Z,93.8
2017-07-29T04:33:24.431Z,93.8
2017-07-29T04:34:32.213Z,93.7
2017-07-29T04:35:39.696Z,93.7
2017-07-29T04:36:47.179Z,93.5
2017-07-29T04:37:54.655Z,93.4
2017-07-29T04:39:01.476Z,93.3
2017-07-29T04:40:09.251Z,93.5
2017-07-29T04:41:16.731Z,93
2017-07-29T04:42:23.883Z,93.3
2017-07-29T04:43:31.358Z,92.8
2017-07-29T04:44:38.526Z,92.9
2017-07-29T04:45:46.004Z,93
2017-07-29T04:46:53.154Z,93.1
2017-07-29T04:48:00.631Z,93.4
2017-07-29T04:49:08.115Z,93.3
2017-07-29T04:50:15.590Z,93.2
2017-07-29T04:51:23.374Z,93.2
2017-07-29T04:52:30.857Z,93.1
2017-07-29T04:53:38.332Z,93.1
2017-07-29T04:54:45.809Z,93.3
2017-07-29T04:55:53.291Z,93.4
2017-07-29T04:57:00.741Z,93.2
2017-07-29T04:58:08.221Z,93.1
2017-07-29T04:59:15.366Z,93.2
2017-07-29T05:00:22.839Z,92.8
2017-07-29T05:01:30.321Z,93
2017-07-29T05:02:37.801Z,92.9
2017-07-29T05:03:45.283Z,93
2017-07-29T05:04:52.495Z,93.1
2017-07-29T05:05:59.981Z,92.9
2017-07-29T05:07:07.459Z,92.8
2017-07-29T05:08:15.242Z,93.1
2017-07-29T05:09:22.720Z,92.9
2017-07-29T05:10:29.870Z,92.7
2017-07-29T05:11:37.342Z,92.6
2017-07-29T05:12:44.825Z,92.7
2017-07-29T05:13:52.606Z,92.7
2017-07-29T05:15:00.080Z,92.6
2017-07-29T05:16:07.799Z,92.8
2017-07-29T05:17:15.306Z,92.9
2017-07-29T05:18:22.779Z,92.8
2017-07-29T05:19:30.560Z,92.7
2017-07-29T05:20:37.725Z,92.7
2017-07-29T05:21:45.213Z,92.4
2017-07-29T05:22:52.694Z,92.5
2017-07-29T05:24:00.173Z,92.4
2017-07-29T05:25:07.653Z,92.3
2017-07-29T05:26:14.800Z,92.6
2017-07-29T05:27:22.276Z,92.9
2017-07-29T05:28:29.752Z,92.8
2017-07-29T05:29:37.235Z,92.8
2017-07-29T05:30:45.011Z,92.9
2017-07-29T05:31:52.495Z,92.9
2017-07-29T05:32:59.973Z,92.9
2017-07-29T05:34:07.460Z,92.8
2017-07-29T05:35:14.950Z,92.7
2017-07-29T05:36:22.398Z,92.5
2017-07-29T05:37:29.480Z,92.2
2017-07-29T05:38:36.959Z,92.5
2017-07-29T05:39:44.109Z,92.4
2017-07-29T05:40:51.591Z,92.4
2017-07-29T05:41:59.042Z,92.4
2017-07-29T05:43:06.520Z,92.5
2017-07-29T05:44:14.003Z,92.6
2017-07-29T05:45:21.491Z,92.5
2017-07-29T05:46:28.964Z,92.5
2017-07-29T05:47:36.743Z,92.2
2017-07-29T05:48:44.228Z,92
2017-07-29T05:51:13.779Z,91.8
2017-07-29T05:52:21.267Z,91.8
2017-07-29T05:53:28.717Z,91.7
2017-07-29T05:54:36.193Z,91.7
2017-07-29T05:55:43.682Z,91.2
2017-07-29T05:56:51.158Z,91.3
2017-07-29T05:57:58.638Z,91
2017-07-29T05:59:06.417Z,91
2017-07-29T06:00:13.894Z,90.9
2017-07-29T06:01:21.382Z,91.2
2017-07-29T06:02:28.897Z,90.9
2017-07-29T06:03:36.366Z,90.4
2017-07-29T06:04:43.847Z,90.1
2017-07-29T06:05:51.333Z,90.2
2017-07-29T06:06:58.820Z,89.6
2017-07-29T06:08:06.298Z,90.4
2017-07-29T06:09:14.082Z,90.1
2017-07-29T06:10:20.897Z,90
2017-07-29T06:11:28.056Z,90
2017-07-29T06:12:35.542Z,90.1
2017-07-29T06:13:43.023Z,90
2017-07-29T06:14:50.809Z,89.7
2017-07-29T06:15:58.289Z,90.3
2017-07-29T06:17:05.772Z,90.3
2017-07-29T06:18:13.248Z,90.5
2017-07-29T06:19:20.729Z,90.2
2017-07-29T06:20:28.534Z,90.5
2017-07-29T06:21:36.012Z,90.3
2017-07-29T06:22:43.500Z,90.3
2017-07-29T06:23:50.660Z,90.3
2017-07-29T06:24:58.151Z,90.5
2017-07-29T06:26:05.939Z,90.6
2017-07-29T06:27:13.410Z,90.1
2017-07-29T06:28:20.884Z,90.1
2017-07-29T06:29:28.378Z,90.5
2017-07-29T06:30:35.856Z,90.2
2017-07-29T06:31:43.352Z,90.5
2017-07-29T06:32:50.504Z,90.5
2017-07-29T06:33:57.989Z,90.5
2017-07-29T06:35:05.472Z,90.4
2017-07-29T06:36:12.951Z,90.6
2017-07-29T06:37:20.734Z,90
2017-07-29T06:38:27.889Z,90.4
2017-07-29T06:39:35.369Z,90.1
2017-07-29T06:40:42.853Z,90.2
2017-07-29T06:41:50.348Z,90.3
2017-07-29T06:42:58.132Z,90.1
2017-07-29T06:44:05.621Z,90.3
2017-07-29T06:45:13.104Z,90.5
2017-07-29T06:46:20.589Z,89.8
2017-07-29T06:47:27.743Z,90
2017-07-29T06:48:35.216Z,90.1
2017-07-29T06:49:42.696Z,90
2017-07-29T06:50:50.174Z,89.4
2017-07-29T06:51:57.651Z,89.2
2017-07-29T06:53:05.133Z,89.6
2017-07-29T06:54:12.913Z,89
2017-07-29T06:55:20.390Z,89.7
2017-07-29T06:56:27.544Z,88.7
2017-07-29T06:57:35.021Z,88.1
2017-07-29T06:58:42.501Z,86.8
2017-07-29T06:59:50.279Z,86.2
2017-07-29T07:00:57.429Z,87.8
2017-07-29T07:02:04.254Z,86.2
2017-07-29T07:03:11.404Z,86.2
2017-07-29T07:04:18.888Z,85.6
2017-07-29T07:05:26.674Z,86.1
2017-07-29T07:06:34.154Z,86.1
2017-07-29T07:07:41.642Z,85.7
2017-07-29T07:08:49.133Z,86.2
2017-07-29T07:09:56.620Z,86
2017-07-29T07:11:04.123Z,86.3
2017-07-29T07:12:12.815Z,85.2
2017-07-29T07:13:19.968Z,84.5
2017-07-29T07:14:27.460Z,84.2
2017-07-29T07:15:34.940Z,84.5
2017-07-29T07:16:42.720Z,86.2
2017-07-29T07:17:49.877Z,85.7
2017-07-29T07:18:57.354Z,84.9
2017-07-29T07:20:04.840Z,85.9
2017-07-29T07:21:12.315Z,83.4
2017-07-29T07:22:19.768Z,84.2
2017-07-29T07:23:27.254Z,83.7
2017-07-29T07:24:34.733Z,84.6
2017-07-29T07:25:42.214Z,84.9
2017-07-29T07:26:49.696Z,85.5
2017-07-29T07:27:57.480Z,84.2
2017-07-29T07:29:04.967Z,84.8
2017-07-29T07:30:12.446Z,84.8
2017-07-29T07:31:19.931Z,83.8
2017-07-29T07:32:27.422Z,83.8
2017-07-29T07:33:35.201Z,84
2017-07-29T07:34:42.687Z,82.8
2017-07-29T07:35:50.175Z,83.3
2017-07-29T07:36:57.338Z,83.7
2017-07-29T07:38:04.489Z,83.3
2017-07-29T07:39:12.271Z,83.5
2017-07-29T07:40:19.414Z,84.1
2017-07-29T07:41:26.903Z,84.1
2017-07-29T07:42:34.382Z,83.9
2017-07-29T07:43:41.865Z,84.1
2017-07-29T07:44:49.651Z,84.5
2017-07-29T07:45:57.130Z,84
2017-07-29T07:47:04.608Z,83.6
2017-07-29T07:48:12.090Z,82.3
2017-07-29T07:49:19.577Z,81.4
2017-07-29T07:50:27.059Z,82.5
2017-07-29T07:51:34.211Z,83.6
2017-07-29T07:52:41.372Z,82.2
2017-07-29T07:53:48.852Z,82.2
2017-07-29T07:54:56.337Z,82.7
2017-07-29T07:56:04.121Z,82.1
2017-07-29T07:57:11.621Z,82.1
2017-07-29T07:58:18.775Z,81.6
2017-07-29T07:59:26.254Z,81.8
2017-07-29T08:00:33.734Z,82.7
2017-07-29T08:01:41.520Z,80.6
2017-07-29T08:02:49.009Z,81.8
2017-07-29T08:03:56.491Z,80.8
2017-07-29T08:05:03.643Z,81.3
2017-07-29T08:06:11.125Z,80.3
2017-07-29T08:07:18.910Z,79.9
2017-07-29T08:08:26.392Z,81.2
2017-07-29T08:09:33.874Z,80.9
2017-07-29T08:10:41.358Z,78.7
2017-07-29T08:11:48.847Z,79.2
2017-07-29T08:12:56.331Z,79
2017-07-29T08:14:03.823Z,78.5
2017-07-29T08:15:11.303Z,79.6
2017-07-29T08:16:18.807Z,77.7
2017-07-29T08:17:26.287Z,79.6
2017-07-29T08:18:34.118Z,77.7
2017-07-29T08:19:41.608Z,78.6
2017-07-29T08:20:49.084Z,77.7
2017-07-29T08:21:56.572Z,77.5
2017-07-29T08:23:04.053Z,77.9
2017-07-29T08:24:11.540Z,77.8
2017-07-29T08:25:19.321Z,78
2017-07-29T08:26:26.801Z,77.9
2017-07-29T08:27:34.282Z,77
2017-07-29T08:28:41.764Z,75.1
2017-07-29T08:29:49.264Z,75.3
2017-07-29T08:30:57.054Z,75.5
2017-07-29T08:32:03.872Z,74
2017-07-29T08:33:11.348Z,76.1
2017-07-29T08:34:18.839Z,74.5
2017-07-29T08:35:26.323Z,75.1
2017-07-29T08:36:34.111Z,75.9
2017-07-29T08:37:41.591Z,74.6
2017-07-29T08:38:49.077Z,75.3
2017-07-29T08:39:56.566Z,73.9
2017-07-29T08:41:04.054Z,73
2017-07-29T08:42:11.210Z,74.2
2017-07-29T08:43:18.697Z,71.8
2017-07-29T08:44:25.843Z,73.1
2017-07-29T08:45:33.324Z,72.7
2017-07-29T08:46:40.825Z,70.9
2017-07-29T08:47:48.609Z,72.9
2017-07-29T08:48:55.756Z,73.3
2017-07-29T08:50:03.240Z,71.8
2017-07-29T08:51:10.719Z,69.8
2017-07-29T08:52:18.200Z,71.9
2017-07-29T08:53:25.981Z,70.2
2017-07-29T08:54:33.466Z,70.8
2017-07-29T08:55:40.951Z,68.6
2017-07-29T08:56:48.428Z,71.3
2017-07-29T08:57:55.912Z,68.6
2017-07-29T08:59:03.696Z,69.7
2017-07-29T09:00:10.847Z,70
2017-07-29T09:01:18.342Z,68.8
2017-07-29T09:02:25.502Z,69.7
2017-07-29T09:03:32.657Z,70.8
2017-07-29T09:04:40.137Z,70.1
2017-07-29T09:05:47.620Z,70.7
2017-07-29T09:06:54.779Z,69
2017-07-29T09:08:02.260Z,68.9
2017-07-29T09:09:10.053Z,67.6
2017-07-29T09:10:17.227Z,68.8
2017-07-29T09:11:24.712Z,68.8
2017-07-29T09:12:32.200Z,69.1
2017-07-29T09:13:39.687Z,69.3
2017-07-29T09:14:47.139Z,68.2
2017-07-29T09:15:54.625Z,68.5
2017-07-29T09:17:02.108Z,67.4
2017-07-29T09:18:09.592Z,67.9
2017-07-29T09:19:16.745Z,67.7
2017-07-29T09:20:24.529Z,65.2
2017-07-29T09:21:32.021Z,66.9
2017-07-29T09:22:39.165Z,66.7
2017-07-29T09:23:46.654Z,65.1
2017-07-29T09:24:54.131Z,67
2017-07-29T09:26:01.913Z,65.3
2017-07-29T09:27:09.396Z,65.3
2017-07-29T09:28:16.886Z,66.1
2017-07-29T09:29:24.368Z,63.3
2017-07-29T09:30:31.859Z,64.7
2017-07-29T09:31:39.348Z,65.3
2017-07-29T09:32:46.837Z,64.3
2017-07-29T09:33:54.322Z,63.7
2017-07-29T09:35:01.805Z,63.2
2017-07-29T09:36:09.297Z,63.9
2017-07-29T09:37:17.087Z,63.5
2017-07-29T09:38:24.573Z,64.3
2017-07-29T09:39:32.069Z,63.9
2017-07-29T09:40:39.573Z,63.4
2017-07-29T09:41:47.043Z,62.7
2017-07-29T09:42:54.529Z,64.4
2017-07-29T09:44:02.014Z,65.3
2017-07-29T09:45:09.502Z,61.9
2017-07-29T09:46:16.994Z,62.8
2017-07-29T09:47:24.451Z,63.5
2017-07-29T09:48:31.938Z,60.8
2017-07-29T09:49:39.442Z,63
2017-07-29T09:50:47.155Z,61
2017-07-29T09:51:54.653Z,60.4
2017-07-29T09:53:02.461Z,62.4
2017-07-29T09:54:09.620Z,61.2
2017-07-29T09:55:17.346Z,61.4
2017-07-29T09:56:24.842Z,65.1
2017-07-29T09:57:32.356Z,61.3
2017-07-29T09:58:39.843Z,63.3
2017-07-29T09:59:47.329Z,60.5
2017-07-29T10:00:54.824Z,59.3
2017-07-29T10:02:02.320Z,58.6
2017-07-29T10:03:10.042Z,62.2
2017-07-29T10:04:17.835Z,60.6
2017-07-29T10:05:25.610Z,60.7
2017-07-29T10:06:32.759Z,58.7
2017-07-29T10:07:40.237Z,58.2
2017-07-29T10:08:47.732Z,59.6
2017-07-29T10:09:56.075Z,57.6
2017-07-29T10:11:03.559Z,59.3
2017-07-29T10:12:10.716Z,57.7
2017-07-29T10:13:18.204Z,57.1
2017-07-29T10:14:25.692Z,58.3
2017-07-29T10:15:33.480Z,60.7
2017-07-29T10:16:40.677Z,59.2
2017-07-29T10:17:48.164Z,58.3
2017-07-29T10:18:55.664Z,59.4
2017-07-29T10:20:03.153Z,59.2
2017-07-29T10:21:10.340Z,60.9
2017-07-29T10:22:17.860Z,56.5
2017-07-29T10:23:25.342Z,60.2
2017-07-29T10:24:32.503Z,56.8
2017-07-29T10:25:39.997Z,56.8
2017-07-29T10:26:47.488Z,56.7
2017-07-29T10:27:54.644Z,57
2017-07-29T10:29:02.136Z,55.7
2017-07-29T10:30:09.299Z,55.7
2017-07-29T10:31:17.094Z,56.3
2017-07-29T10:32:24.580Z,57.5
2017-07-29T10:33:32.303Z,56.9
2017-07-29T10:34:39.788Z,58.2
2017-07-29T10:35:47.172Z,56.4
2017-07-29T10:36:55.014Z,56.4
2017-07-29T10:38:02.518Z,57.8
2017-07-29T10:39:10.004Z,58.2
2017-07-29T10:40:17.490Z,57
2017-07-29T10:41:24.978Z,58.9
2017-07-29T10:42:31.796Z,55.9
2017-07-29T10:43:39.248Z,56.7
2017-07-29T10:44:46.352Z,56.3
2017-07-29T10:45:53.852Z,55.8
2017-07-29T10:47:01.335Z,55.6
2017-07-29T10:48:08.823Z,55.9
2017-07-29T10:49:16.282Z,56.5
2017-07-29T10:50:23.429Z,56.2
2017-07-29T10:51:30.917Z,56
2017-07-29T10:52:38.324Z,56.6
2017-07-29T10:53:45.814Z,54.6
2017-07-29T10:54:53.535Z,53.4
2017-07-29T10:56:01.025Z,55.4
2017-07-29T10:57:08.556Z,53.4
2017-07-29T10:58:16.040Z,55.6
2017-07-29T10:59:23.561Z,55.4
2017-07-29T11:00:31.048Z,52.9
2017-07-29T11:01:39.225Z,54.2
2017-07-29T11:02:46.441Z,56.4
2017-07-29T11:03:53.934Z,54.7
2017-07-29T11:05:01.740Z,55.2
2017-07-29T11:06:09.232Z,54.1
2017-07-29T11:07:16.715Z,56.1
2017-07-29T11:08:24.203Z,56.1
2017-07-29T11:09:31.690Z,56.2
2017-07-29T11:10:39.478Z,52.9
2017-07-29T11:11:46.646Z,52.8
2017-07-29T11:12:54.145Z,52.5
2017-07-29T11:14:01.665Z,55.3
2017-07-29T11:15:09.164Z,51.7
2017-07-29T11:16:16.632Z,55
2017-07-29T11:17:24.120Z,52.3
2017-07-29T11:18:31.610Z,53.6
2017-07-29T11:19:38.478Z,58.2
2017-07-29T11:20:45.634Z,54.5
2017-07-29T11:21:53.492Z,53.3
2017-07-29T11:23:00.982Z,54.3
2017-07-29T11:24:08.478Z,52.8
2017-07-29T11:25:15.635Z,53
2017-07-29T11:26:23.125Z,53.6
2017-07-29T11:27:30.972Z,52.5
2017-07-29T11:28:38.458Z,52.3
2017-07-29T11:29:45.951Z,52.2
2017-07-29T11:30:53.436Z,53.7
2017-07-29T11:32:00.925Z,53.4
2017-07-29T11:33:08.958Z,51.6
2017-07-29T11:34:16.452Z,53.6
2017-07-29T11:35:23.945Z,53.2
2017-07-29T11:36:31.443Z,53
2017-07-29T11:37:38.934Z,51.9
2017-07-29T11:38:46.787Z,52
2017-07-29T11:39:53.944Z,50.3
2017-07-29T11:41:01.442Z,54
2017-07-29T11:42:08.951Z,53
2017-07-29T11:43:16.437Z,50.7
2017-07-29T11:44:24.272Z,53.4
2017-07-29T11:45:31.986Z,51.7
2017-07-29T11:46:39.476Z,53.8
2017-07-29T11:47:46.641Z,54.9
2017-07-29T11:48:54.138Z,53.4
2017-07-29T11:50:01.943Z,50.2
2017-07-29T11:51:09.429Z,54
2017-07-29T11:52:16.936Z,51.6
2017-07-29T11:53:24.440Z,53.3
2017-07-29T11:54:32.134Z,51.5
2017-07-29T11:55:39.925Z,53
2017-07-29T11:56:47.419Z,52.5
2017-07-29T11:57:54.910Z,54.2
2017-07-29T11:59:02.409Z,53.1
2017-07-29T12:00:09.898Z,53
2017-07-29T12:01:17.696Z,54
2017-07-29T12:02:25.184Z,54.1
2017-07-29T12:03:32.676Z,52.9
2017-07-29T12:04:40.164Z,55.5
2017-07-29T12:05:47.326Z,55.3
2017-07-29T12:06:54.487Z,53
2017-07-29T12:08:01.983Z,55.2
2017-07-29T12:09:09.480Z,54
2017-07-29T12:10:16.967Z,54.9
2017-07-29T12:11:24.130Z,55.8
2017-07-29T12:12:31.591Z,53.7
2017-07-29T12:13:38.750Z,55.7
2017-07-29T12:14:46.237Z,54.6
2017-07-29T12:15:53.731Z,54
2017-07-29T12:17:01.234Z,56.3
2017-07-29T12:18:08.702Z,54.4
2017-07-29T12:19:16.188Z,53.6
2017-07-29T12:20:23.677Z,53.4
2017-07-29T12:21:30.833Z,54.5
2017-07-29T12:22:38.327Z,53.6
2017-07-29T12:23:45.815Z,54.4
2017-07-29T12:24:53.309Z,54.9
2017-07-29T12:26:00.806Z,53.4
2017-07-29T12:27:08.307Z,53.2
2017-07-29T12:28:15.488Z,53.3
2017-07-29T12:29:22.964Z,53.6
2017-07-29T12:30:30.449Z,52.3
2017-07-29T12:31:37.935Z,54.1
2017-07-29T12:32:45.423Z,52.5
2017-07-29T12:33:52.917Z,53.2
2017-07-29T12:35:00.706Z,52.2
2017-07-29T12:36:08.187Z,50.7
2017-07-29T12:37:15.682Z,49.7
2017-07-29T12:38:23.181Z,51.8
2017-07-29T12:39:30.669Z,52.3
2017-07-29T12:40:38.452Z,51.6
2017-07-29T12:41:45.937Z,51.8
2017-07-29T12:42:53.426Z,52.1
2017-07-29T12:44:00.917Z,53
2017-07-29T12:45:08.410Z,51.3
2017-07-29T12:46:16.281Z,50.2
2017-07-29T12:47:23.767Z,51.2
2017-07-29T12:48:31.275Z,50.3
2017-07-29T12:49:38.442Z,50.9
2017-07-29T12:50:45.936Z,53
2017-07-29T12:51:53.729Z,51.3
2017-07-29T12:53:01.224Z,48.9
2017-07-29T12:54:08.740Z,50.7
2017-07-29T12:55:16.230Z,49.2
2017-07-29T12:56:23.393Z,50.7
2017-07-29T12:57:31.204Z,50.7
2017-07-29T12:58:38.703Z,53
2017-07-29T12:59:46.194Z,48.7
2017-07-29T13:00:53.691Z,49.2
2017-07-29T13:02:01.191Z,49.7
2017-07-29T13:03:08.984Z,50.8
2017-07-29T13:04:16.480Z,51.7
2017-07-29T13:05:23.644Z,52
2017-07-29T13:06:31.128Z,50.7
2017-07-29T13:07:40.561Z,48.7
2017-07-29T13:08:48.403Z,48.7
2017-07-29T13:09:55.889Z,49
2017-07-29T13:11:03.377Z,49.7
2017-07-29T13:12:10.867Z,51.1
2017-07-29T13:13:18.038Z,51.2
2017-07-29T13:14:25.873Z,51.2
2017-07-29T13:15:33.364Z,48.4
2017-07-29T13:16:40.851Z,51.5
2017-07-29T13:17:48.345Z,51.3
2017-07-29T13:18:55.510Z,53.8
2017-07-29T13:20:03.375Z,51.3
2017-07-29T13:21:10.858Z,49.6
2017-07-29T13:22:18.360Z,51.6
2017-07-29T13:23:25.858Z,49.3
2017-07-29T13:24:33.350Z,50.7
2017-07-29T13:25:40.816Z,51
2017-07-29T13:26:48.305Z,50.7
2017-07-29T13:27:55.799Z,53.4
2017-07-29T13:29:03.295Z,51
2017-07-29T13:30:10.789Z,49.8
2017-07-29T13:31:18.587Z,49.2
2017-07-29T13:32:26.085Z,50.9
2017-07-29T13:33:33.575Z,50.7
2017-07-29T13:34:41.063Z,49
2017-07-29T13:35:48.560Z,51.2
2017-07-29T13:36:56.356Z,50.9
2017-07-29T13:38:03.535Z,50.7
2017-07-29T13:39:11.016Z,50.5
2017-07-29T13:40:18.514Z,51.3
2017-07-29T13:41:26.014Z,52.7
2017-07-29T13:42:33.491Z,50.5
2017-07-29T13:43:40.974Z,51.3
2017-07-29T13:44:48.480Z,50.5
2017-07-29T13:45:55.971Z,51.6
2017-07-29T13:47:03.462Z,51.4
2017-07-29T13:48:11.257Z,51
2017-07-29T13:49:18.747Z,51.4
2017-07-29T13:50:26.236Z,50.1
2017-07-29T13:51:33.722Z,52.8
2017-07-29T13:52:41.213Z,50.3
2017-07-29T13:53:48.393Z,49
2017-07-29T13:54:55.890Z,50.3
2017-07-29T13:56:03.378Z,48.6
2017-07-29T13:57:10.876Z,51
2017-07-29T13:58:18.391Z,50.7
2017-07-29T13:59:25.886Z,50.7
2017-07-29T14:00:33.379Z,52.6
2017-07-29T14:01:40.919Z,52.3
2017-07-29T14:02:48.707Z,49.8
2017-07-29T14:03:56.202Z,52.1
2017-07-29T14:05:03.701Z,47
2017-07-29T14:06:10.864Z,49
2017-07-29T14:07:18.351Z,49.2
2017-07-29T14:08:26.143Z,47
2017-07-29T14:09:33.635Z,47.2
2017-07-29T14:10:41.120Z,47.8
2017-07-29T14:11:48.289Z,48.1
2017-07-29T14:12:55.786Z,49.5
2017-07-29T14:14:03.586Z,47.8
2017-07-29T14:15:11.082Z,48.2
2017-07-29T14:16:18.577Z,50
2017-07-29T14:17:26.075Z,52.4
2017-07-29T14:18:33.256Z,48.2
2017-07-29T14:19:40.419Z,50.9
2017-07-29T14:20:47.907Z,48.3
2017-07-29T14:21:55.395Z,52.5
2017-07-29T14:23:02.894Z,49.5
2017-07-29T14:24:10.398Z,50.3
2017-07-29T14:25:18.185Z,50.1
2017-07-29T14:26:25.348Z,50.5
2017-07-29T14:27:32.853Z,47.9
2017-07-29T14:28:40.346Z,50.8
2017-07-29T14:29:47.826Z,51
2017-07-29T14:30:55.622Z,51.5
2017-07-29T14:32:03.115Z,50.4
2017-07-29T14:33:10.606Z,52.5
2017-07-29T14:34:18.096Z,53.5
2017-07-29T14:35:25.587Z,51.2
2017-07-29T14:36:33.373Z,50.8
2017-07-29T14:37:40.862Z,55.3
2017-07-29T14:38:48.356Z,50.9
2017-07-29T14:39:55.861Z,52.2
2017-07-29T14:41:03.383Z,51.6
2017-07-29T14:42:10.890Z,51.7
2017-07-29T14:43:18.371Z,51.2
2017-07-29T14:44:26.182Z,50.3
2017-07-29T14:45:33.673Z,52.5
2017-07-29T14:46:40.845Z,52.5
2017-07-29T14:49:10.412Z,52.5
2017-07-29T14:50:18.204Z,51
2017-07-29T14:51:25.695Z,52.3
2017-07-29T14:52:33.190Z,53.6
2017-07-29T14:53:40.598Z,52.3
2017-07-29T14:54:48.083Z,50.9
2017-07-29T14:55:55.870Z,50.9
2017-07-29T14:57:03.368Z,50.8
2017-07-29T14:58:10.529Z,52.1
2017-07-29T14:59:17.692Z,51.8
2017-07-29T15:00:25.184Z,51.9
2017-07-29T15:01:32.360Z,51.9
2017-07-29T15:02:39.526Z,50.8
2017-07-29T15:03:47.019Z,50.7
2017-07-29T15:04:54.511Z,52.1
2017-07-29T15:06:02.023Z,51.4
2017-07-29T15:07:09.814Z,52.5